sensor_id;sensor_type;location;lat;lon;timestamp;P1;durP1;ratioP1;P2;durP2;ratioP2
32096;SDS011;18610;49.916;8.284;2023-06-14T00:01:34;8.30;;;5.13;;
32096;SDS011;18610;49.916;8.284;2023-06-14T00:04:01;10.32;;;5.13;;
32096;SDS011;18610;49.916;8.284;2023-06-14T00:06:28;11.85;;;5.00;;
32096;SDS011;18610;49.916;8.284;2023-06-14T00:08:56;13.15;;;6.00;;
32096;SDS011;18610;49.916;8.284;2023-06-14T00:11:23;9.27;;;5.57;;
32096;SDS011;18610;49.916;8.284;2023-06-14T00:13:51;13.27;;;5.45;;
32096;SDS011;18610;49.916;8.284;2023-06-14T00:16:18;17.48;;;5.18;;
32096;SDS011;18610;49.916;8.284;2023-06-14T00:18:46;11.43;;;5.35;;
32096;SDS011;18610;49.916;8.284;2023-06-14T00:21:12;12.15;;;5.07;;
32096;SDS011;18610;49.916;8.284;2023-06-14T00:23:40;11.60;;;4.53;;
32096;SDS011;18610;49.916;8.284;2023-06-14T00:26:08;10.88;;;5.13;;
32096;SDS011;18610;49.916;8.284;2023-06-14T00:28:34;9.43;;;4.82;;
32096;SDS011;18610;49.916;8.284;2023-06-14T00:31:01;16.38;;;5.22;;
32096;SDS011;18610;49.916;8.284;2023-06-14T00:33:28;8.27;;;4.72;;
32096;SDS011;18610;49.916;8.284;2023-06-14T00:35:54;10.90;;;5.28;;
32096;SDS011;18610;49.916;8.284;2023-06-14T00:38:21;8.30;;;4.95;;
32096;SDS011;18610;49.916;8.284;2023-06-14T00:40:47;11.23;;;5.05;;
32096;SDS011;18610;49.916;8.284;2023-06-14T00:43:15;9.88;;;5.95;;
32096;SDS011;18610;49.916;8.284;2023-06-14T00:45:42;7.80;;;4.57;;
32096;SDS011;18610;49.916;8.284;2023-06-14T00:48:09;12.82;;;4.70;;
32096;SDS011;18610;49.916;8.284;2023-06-14T00:50:37;8.80;;;4.70;;
32096;SDS011;18610;49.916;8.284;2023-06-14T00:53:05;9.15;;;5.35;;
32096;SDS011;18610;49.916;8.284;2023-06-14T00:55:33;7.82;;;4.88;;
32096;SDS011;18610;49.916;8.284;2023-06-14T00:57:59;10.23;;;5.30;;
32096;SDS011;18610;49.916;8.284;2023-06-14T01:00:27;9.27;;;4.93;;
32096;SDS011;18610;49.916;8.284;2023-06-14T01:02:54;10.82;;;4.78;;
32096;SDS011;18610;49.916;8.284;2023-06-14T01:05:21;13.68;;;5.05;;
32096;SDS011;18610;49.916;8.284;2023-06-14T01:07:55;7.70;;;5.28;;
32096;SDS011;18610;49.916;8.284;2023-06-14T01:10:33;13.90;;;5.35;;
32096;SDS011;18610;49.916;8.284;2023-06-14T01:13:07;6.82;;;4.78;;
32096;SDS011;18610;49.916;8.284;2023-06-14T01:15:39;11.57;;;5.10;;
32096;SDS011;18610;49.916;8.284;2023-06-14T01:18:09;7.75;;;5.00;;
32096;SDS011;18610;49.916;8.284;2023-06-14T01:20:42;13.65;;;5.20;;
32096;SDS011;18610;49.916;8.284;2023-06-14T01:23:15;10.60;;;5.38;;
32096;SDS011;18610;49.916;8.284;2023-06-14T01:25:42;11.68;;;5.28;;
32096;SDS011;18610;49.916;8.284;2023-06-14T01:28:09;9.95;;;5.30;;
32096;SDS011;18610;49.916;8.284;2023-06-14T01:30:38;14.55;;;5.10;;
32096;SDS011;18610;49.916;8.284;2023-06-14T01:33:07;10.88;;;5.10;;
32096;SDS011;18610;49.916;8.284;2023-06-14T01:35:37;8.02;;;4.85;;
32096;SDS011;18610;49.916;8.284;2023-06-14T01:38:03;9.10;;;4.35;;
32096;SDS011;18610;49.916;8.284;2023-06-14T01:40:34;9.77;;;4.63;;
32096;SDS011;18610;49.916;8.284;2023-06-14T01:43:04;7.60;;;4.85;;
32096;SDS011;18610;49.916;8.284;2023-06-14T01:45:33;9.38;;;4.55;;
32096;SDS011;18610;49.916;8.284;2023-06-14T01:48:01;23.15;;;4.90;;
32096;SDS011;18610;49.916;8.284;2023-06-14T01:50:28;10.95;;;4.68;;
32096;SDS011;18610;49.916;8.284;2023-06-14T01:52:56;8.35;;;4.75;;
32096;SDS011;18610;49.916;8.284;2023-06-14T01:55:23;11.57;;;4.57;;
32096;SDS011;18610;49.916;8.284;2023-06-14T01:57:52;10.30;;;5.35;;
32096;SDS011;18610;49.916;8.284;2023-06-14T02:00:19;11.68;;;4.78;;
32096;SDS011;18610;49.916;8.284;2023-06-14T02:02:46;7.03;;;4.70;;
32096;SDS011;18610;49.916;8.284;2023-06-14T02:05:14;6.03;;;3.95;;
32096;SDS011;18610;49.916;8.284;2023-06-14T02:07:43;12.07;;;4.65;;
32096;SDS011;18610;49.916;8.284;2023-06-14T02:10:10;9.18;;;5.32;;
32096;SDS011;18610;49.916;8.284;2023-06-14T02:12:37;8.15;;;4.22;;
32096;SDS011;18610;49.916;8.284;2023-06-14T02:15:05;10.25;;;4.55;;
32096;SDS011;18610;49.916;8.284;2023-06-14T02:17:33;12.48;;;4.40;;
32096;SDS011;18610;49.916;8.284;2023-06-14T02:20:00;8.68;;;4.18;;
32096;SDS011;18610;49.916;8.284;2023-06-14T02:22:29;6.03;;;4.53;;
32096;SDS011;18610;49.916;8.284;2023-06-14T02:24:56;7.80;;;4.15;;
32096;SDS011;18610;49.916;8.284;2023-06-14T02:27:23;11.95;;;5.30;;
32096;SDS011;18610;49.916;8.284;2023-06-14T02:29:50;17.65;;;4.70;;
32096;SDS011;18610;49.916;8.284;2023-06-14T02:32:17;9.77;;;4.05;;
32096;SDS011;18610;49.916;8.284;2023-06-14T02:34:44;12.45;;;4.57;;
32096;SDS011;18610;49.916;8.284;2023-06-14T02:37:14;11.38;;;4.53;;
32096;SDS011;18610;49.916;8.284;2023-06-14T02:39:41;8.95;;;4.45;;
32096;SDS011;18610;49.916;8.284;2023-06-14T02:42:07;9.02;;;4.68;;
32096;SDS011;18610;49.916;8.284;2023-06-14T02:44:35;5.95;;;3.80;;
32096;SDS011;18610;49.916;8.284;2023-06-14T02:47:02;14.63;;;5.10;;
32096;SDS011;18610;49.916;8.284;2023-06-14T02:49:31;8.80;;;4.38;;
32096;SDS011;18610;49.916;8.284;2023-06-14T02:51:57;7.07;;;4.45;;
32096;SDS011;18610;49.916;8.284;2023-06-14T02:54:24;10.02;;;3.80;;
32096;SDS011;18610;49.916;8.284;2023-06-14T02:56:51;11.65;;;5.25;;
32096;SDS011;18610;49.916;8.284;2023-06-14T02:59:18;11.07;;;4.68;;
32096;SDS011;18610;49.916;8.284;2023-06-14T03:01:46;11.73;;;4.20;;
32096;SDS011;18610;49.916;8.284;2023-06-14T03:04:13;11.98;;;4.43;;
32096;SDS011;18610;49.916;8.284;2023-06-14T03:06:42;9.13;;;4.07;;
32096;SDS011;18610;49.916;8.284;2023-06-14T03:09:15;12.93;;;4.50;;
32096;SDS011;18610;49.916;8.284;2023-06-14T03:11:42;9.32;;;3.92;;
32096;SDS011;18610;49.916;8.284;2023-06-14T03:14:09;8.02;;;4.68;;
32096;SDS011;18610;49.916;8.284;2023-06-14T03:16:36;12.73;;;3.78;;
32096;SDS011;18610;49.916;8.284;2023-06-14T03:19:03;9.75;;;4.68;;
32096;SDS011;18610;49.916;8.284;2023-06-14T03:21:29;13.27;;;4.82;;
32096;SDS011;18610;49.916;8.284;2023-06-14T03:23:58;7.28;;;4.53;;
32096;SDS011;18610;49.916;8.284;2023-06-14T03:26:25;9.35;;;3.95;;
32096;SDS011;18610;49.916;8.284;2023-06-14T03:28:55;10.18;;;4.18;;
32096;SDS011;18610;49.916;8.284;2023-06-14T03:31:22;10.43;;;4.63;;
32096;SDS011;18610;49.916;8.284;2023-06-14T03:33:48;7.65;;;4.10;;
32096;SDS011;18610;49.916;8.284;2023-06-14T03:36:15;8.77;;;4.38;;
32096;SDS011;18610;49.916;8.284;2023-06-14T03:38:42;9.50;;;4.28;;
32096;SDS011;18610;49.916;8.284;2023-06-14T03:41:11;5.18;;;3.80;;
32096;SDS011;18610;49.916;8.284;2023-06-14T03:43:37;23.63;;;4.70;;
32096;SDS011;18610;49.916;8.284;2023-06-14T03:46:04;20.30;;;4.47;;
32096;SDS011;18610;49.916;8.284;2023-06-14T03:48:31;9.85;;;3.83;;
32096;SDS011;18610;49.916;8.284;2023-06-14T03:51:00;8.57;;;4.20;;
32096;SDS011;18610;49.916;8.284;2023-06-14T03:53:27;15.30;;;4.65;;
32096;SDS011;18610;49.916;8.284;2023-06-14T03:55:57;13.32;;;4.10;;
32096;SDS011;18610;49.916;8.284;2023-06-14T03:58:26;10.02;;;4.13;;
32096;SDS011;18610;49.916;8.284;2023-06-14T04:00:53;12.23;;;4.22;;
32096;SDS011;18610;49.916;8.284;2023-06-14T04:03:19;10.13;;;4.75;;
32096;SDS011;18610;49.916;8.284;2023-06-14T04:05:53;10.13;;;4.20;;
32096;SDS011;18610;49.916;8.284;2023-06-14T04:08:24;15.77;;;4.38;;
32096;SDS011;18610;49.916;8.284;2023-06-14T04:10:51;8.77;;;4.40;;
32096;SDS011;18610;49.916;8.284;2023-06-14T04:13:18;9.73;;;4.65;;
32096;SDS011;18610;49.916;8.284;2023-06-14T04:15:46;9.75;;;4.32;;
32096;SDS011;18610;49.916;8.284;2023-06-14T04:18:13;13.43;;;4.28;;
32096;SDS011;18610;49.916;8.284;2023-06-14T04:20:40;7.10;;;4.15;;
32096;SDS011;18610;49.916;8.284;2023-06-14T04:23:13;11.13;;;4.30;;
32096;SDS011;18610;49.916;8.284;2023-06-14T04:25:40;21.20;;;4.93;;
32096;SDS011;18610;49.916;8.284;2023-06-14T04:28:10;6.25;;;4.25;;
32096;SDS011;18610;49.916;8.284;2023-06-14T04:30:37;10.57;;;4.53;;
32096;SDS011;18610;49.916;8.284;2023-06-14T04:33:07;9.18;;;4.07;;
32096;SDS011;18610;49.916;8.284;2023-06-14T04:35:34;8.45;;;4.47;;
32096;SDS011;18610;49.916;8.284;2023-06-14T04:38:02;11.45;;;4.55;;
32096;SDS011;18610;49.916;8.284;2023-06-14T04:40:30;9.10;;;4.78;;
32096;SDS011;18610;49.916;8.284;2023-06-14T04:42:58;10.57;;;4.85;;
32096;SDS011;18610;49.916;8.284;2023-06-14T04:45:26;14.32;;;5.28;;
32096;SDS011;18610;49.916;8.284;2023-06-14T04:47:58;8.27;;;4.25;;
32096;SDS011;18610;49.916;8.284;2023-06-14T04:50:26;7.78;;;4.35;;
32096;SDS011;18610;49.916;8.284;2023-06-14T04:52:54;10.35;;;4.15;;
32096;SDS011;18610;49.916;8.284;2023-06-14T04:55:21;14.85;;;4.80;;
32096;SDS011;18610;49.916;8.284;2023-06-14T04:57:49;8.70;;;4.40;;
32096;SDS011;18610;49.916;8.284;2023-06-14T05:00:18;10.23;;;4.43;;
32096;SDS011;18610;49.916;8.284;2023-06-14T05:02:45;26.00;;;5.75;;
32096;SDS011;18610;49.916;8.284;2023-06-14T05:05:14;12.82;;;4.68;;
32096;SDS011;18610;49.916;8.284;2023-06-14T05:07:42;14.00;;;4.50;;
32096;SDS011;18610;49.916;8.284;2023-06-14T05:10:09;15.30;;;5.07;;
32096;SDS011;18610;49.916;8.284;2023-06-14T05:12:36;16.98;;;4.80;;
32096;SDS011;18610;49.916;8.284;2023-06-14T05:15:03;11.48;;;4.60;;
32096;SDS011;18610;49.916;8.284;2023-06-14T05:17:30;7.35;;;4.43;;
32096;SDS011;18610;49.916;8.284;2023-06-14T05:19:57;8.23;;;4.20;;
32096;SDS011;18610;49.916;8.284;2023-06-14T05:22:24;13.52;;;5.18;;
32096;SDS011;18610;49.916;8.284;2023-06-14T05:24:52;13.93;;;4.53;;
32096;SDS011;18610;49.916;8.284;2023-06-14T05:27:19;17.45;;;4.47;;
32096;SDS011;18610;49.916;8.284;2023-06-14T05:29:45;10.25;;;4.88;;
32096;SDS011;18610;49.916;8.284;2023-06-14T05:32:12;17.00;;;4.65;;
32096;SDS011;18610;49.916;8.284;2023-06-14T05:34:42;11.55;;;4.63;;
32096;SDS011;18610;49.916;8.284;2023-06-14T05:37:09;8.50;;;4.22;;
32096;SDS011;18610;49.916;8.284;2023-06-14T05:39:36;8.30;;;4.32;;
32096;SDS011;18610;49.916;8.284;2023-06-14T05:42:04;10.20;;;4.47;;
32096;SDS011;18610;49.916;8.284;2023-06-14T05:44:32;14.20;;;4.65;;
32096;SDS011;18610;49.916;8.284;2023-06-14T05:46:58;21.98;;;5.68;;
32096;SDS011;18610;49.916;8.284;2023-06-14T05:49:25;15.52;;;5.03;;
32096;SDS011;18610;49.916;8.284;2023-06-14T05:51:52;14.35;;;5.75;;
32096;SDS011;18610;49.916;8.284;2023-06-14T05:54:19;10.30;;;4.53;;
32096;SDS011;18610;49.916;8.284;2023-06-14T05:56:45;13.15;;;5.10;;
32096;SDS011;18610;49.916;8.284;2023-06-14T05:59:13;11.10;;;3.72;;
32096;SDS011;18610;49.916;8.284;2023-06-14T06:01:40;16.70;;;4.20;;
32096;SDS011;18610;49.916;8.284;2023-06-14T06:04:07;9.13;;;4.22;;
32096;SDS011;18610;49.916;8.284;2023-06-14T06:06:34;21.55;;;4.78;;
32096;SDS011;18610;49.916;8.284;2023-06-14T06:09:01;9.18;;;3.75;;
32096;SDS011;18610;49.916;8.284;2023-06-14T06:11:27;9.13;;;3.95;;
32096;SDS011;18610;49.916;8.284;2023-06-14T06:13:54;15.27;;;4.10;;
32096;SDS011;18610;49.916;8.284;2023-06-14T06:16:22;16.35;;;3.72;;
32096;SDS011;18610;49.916;8.284;2023-06-14T06:18:49;12.63;;;4.07;;
32096;SDS011;18610;49.916;8.284;2023-06-14T06:21:16;15.38;;;3.78;;
32096;SDS011;18610;49.916;8.284;2023-06-14T06:23:42;9.20;;;3.45;;
32096;SDS011;18610;49.916;8.284;2023-06-14T06:26:09;10.23;;;3.85;;
32096;SDS011;18610;49.916;8.284;2023-06-14T06:28:36;10.05;;;4.00;;
32096;SDS011;18610;49.916;8.284;2023-06-14T06:31:02;8.98;;;3.80;;
32096;SDS011;18610;49.916;8.284;2023-06-14T06:33:31;10.90;;;4.50;;
32096;SDS011;18610;49.916;8.284;2023-06-14T06:35:58;8.30;;;3.60;;
32096;SDS011;18610;49.916;8.284;2023-06-14T06:38:24;8.05;;;3.20;;
32096;SDS011;18610;49.916;8.284;2023-06-14T06:40:51;11.60;;;4.30;;
32096;SDS011;18610;49.916;8.284;2023-06-14T06:43:19;7.18;;;3.85;;
32096;SDS011;18610;49.916;8.284;2023-06-14T06:45:46;21.40;;;4.15;;
32096;SDS011;18610;49.916;8.284;2023-06-14T06:48:12;7.43;;;3.75;;
32096;SDS011;18610;49.916;8.284;2023-06-14T06:50:42;10.68;;;4.78;;
32096;SDS011;18610;49.916;8.284;2023-06-14T06:53:08;11.48;;;4.53;;
32096;SDS011;18610;49.916;8.284;2023-06-14T06:55:35;11.38;;;3.78;;
32096;SDS011;18610;49.916;8.284;2023-06-14T06:58:02;17.83;;;4.45;;
32096;SDS011;18610;49.916;8.284;2023-06-14T07:00:30;7.60;;;3.90;;
32096;SDS011;18610;49.916;8.284;2023-06-14T07:02:57;13.00;;;3.80;;
32096;SDS011;18610;49.916;8.284;2023-06-14T07:05:24;7.90;;;3.75;;
32096;SDS011;18610;49.916;8.284;2023-06-14T07:07:52;17.23;;;3.63;;
32096;SDS011;18610;49.916;8.284;2023-06-14T07:10:18;11.63;;;4.20;;
32096;SDS011;18610;49.916;8.284;2023-06-14T07:12:45;7.22;;;3.13;;
32096;SDS011;18610;49.916;8.284;2023-06-14T07:15:12;8.90;;;3.80;;
32096;SDS011;18610;49.916;8.284;2023-06-14T07:17:39;12.88;;;4.40;;
32096;SDS011;18610;49.916;8.284;2023-06-14T07:20:06;12.00;;;3.65;;
32096;SDS011;18610;49.916;8.284;2023-06-14T07:22:36;7.03;;;3.45;;
32096;SDS011;18610;49.916;8.284;2023-06-14T07:25:05;8.88;;;3.40;;
32096;SDS011;18610;49.916;8.284;2023-06-14T07:27:33;8.18;;;3.80;;
32096;SDS011;18610;49.916;8.284;2023-06-14T07:30:00;10.05;;;3.60;;
32096;SDS011;18610;49.916;8.284;2023-06-14T07:32:26;7.65;;;3.63;;
32096;SDS011;18610;49.916;8.284;2023-06-14T07:34:53;4.88;;;3.97;;
32096;SDS011;18610;49.916;8.284;2023-06-14T07:37:20;4.60;;;3.90;;
32096;SDS011;18610;49.916;8.284;2023-06-14T07:39:46;16.38;;;3.60;;
32096;SDS011;18610;49.916;8.284;2023-06-14T07:42:15;6.25;;;3.13;;
32096;SDS011;18610;49.916;8.284;2023-06-14T07:44:41;9.23;;;3.83;;
32096;SDS011;18610;49.916;8.284;2023-06-14T07:47:08;10.13;;;2.72;;
32096;SDS011;18610;49.916;8.284;2023-06-14T07:49:35;8.35;;;3.17;;
32096;SDS011;18610;49.916;8.284;2023-06-14T07:52:02;8.75;;;3.28;;
32096;SDS011;18610;49.916;8.284;2023-06-14T07:54:30;11.05;;;3.40;;
32096;SDS011;18610;49.916;8.284;2023-06-14T07:56:57;6.50;;;2.88;;
32096;SDS011;18610;49.916;8.284;2023-06-14T07:59:26;7.13;;;3.65;;
32096;SDS011;18610;49.916;8.284;2023-06-14T08:01:53;10.80;;;3.10;;
32096;SDS011;18610;49.916;8.284;2023-06-14T08:04:20;11.50;;;2.92;;
32096;SDS011;18610;49.916;8.284;2023-06-14T08:06:48;8.02;;;3.00;;
32096;SDS011;18610;49.916;8.284;2023-06-14T08:09:15;10.65;;;2.85;;
32096;SDS011;18610;49.916;8.284;2023-06-14T08:11:42;14.57;;;2.92;;
32096;SDS011;18610;49.916;8.284;2023-06-14T08:14:09;7.05;;;2.70;;
32096;SDS011;18610;49.916;8.284;2023-06-14T08:16:37;9.57;;;2.67;;
32096;SDS011;18610;49.916;8.284;2023-06-14T08:19:04;8.38;;;3.08;;
32096;SDS011;18610;49.916;8.284;2023-06-14T08:21:31;5.57;;;2.40;;
32096;SDS011;18610;49.916;8.284;2023-06-14T08:23:58;8.70;;;2.70;;
32096;SDS011;18610;49.916;8.284;2023-06-14T08:26:25;4.82;;;2.58;;
32096;SDS011;18610;49.916;8.284;2023-06-14T08:28:53;6.68;;;3.20;;
32096;SDS011;18610;49.916;8.284;2023-06-14T08:31:21;7.13;;;2.78;;
32096;SDS011;18610;49.916;8.284;2023-06-14T08:33:52;7.60;;;2.28;;
32096;SDS011;18610;49.916;8.284;2023-06-14T08:36:19;6.63;;;2.90;;
32096;SDS011;18610;49.916;8.284;2023-06-14T08:38:47;9.90;;;2.65;;
32096;SDS011;18610;49.916;8.284;2023-06-14T08:41:14;5.53;;;2.67;;
32096;SDS011;18610;49.916;8.284;2023-06-14T08:43:47;3.00;;;2.53;;
32096;SDS011;18610;49.916;8.284;2023-06-14T08:46:13;6.07;;;2.50;;
32096;SDS011;18610;49.916;8.284;2023-06-14T08:48:44;6.20;;;2.72;;
32096;SDS011;18610;49.916;8.284;2023-06-14T08:51:14;3.80;;;2.20;;
32096;SDS011;18610;49.916;8.284;2023-06-14T08:53:44;8.45;;;2.38;;
32096;SDS011;18610;49.916;8.284;2023-06-14T08:56:12;9.05;;;2.88;;
32096;SDS011;18610;49.916;8.284;2023-06-14T08:58:40;11.10;;;2.60;;
32096;SDS011;18610;49.916;8.284;2023-06-14T09:01:10;5.20;;;2.30;;
32096;SDS011;18610;49.916;8.284;2023-06-14T09:03:39;13.82;;;2.50;;
32096;SDS011;18610;49.916;8.284;2023-06-14T09:06:06;9.15;;;2.03;;
32096;SDS011;18610;49.916;8.284;2023-06-14T09:08:39;6.32;;;1.83;;
32096;SDS011;18610;49.916;8.284;2023-06-14T09:11:08;9.75;;;2.22;;
32096;SDS011;18610;49.916;8.284;2023-06-14T09:13:36;2.75;;;2.00;;
32096;SDS011;18610;49.916;8.284;2023-06-14T09:16:03;3.63;;;1.85;;
32096;SDS011;18610;49.916;8.284;2023-06-14T09:18:34;7.53;;;2.05;;
32096;SDS011;18610;49.916;8.284;2023-06-14T09:21:02;4.63;;;2.10;;
32096;SDS011;18610;49.916;8.284;2023-06-14T09:23:28;7.82;;;2.17;;
32096;SDS011;18610;49.916;8.284;2023-06-14T09:25:57;3.15;;;1.80;;
32096;SDS011;18610;49.916;8.284;2023-06-14T09:28:26;7.03;;;2.20;;
32096;SDS011;18610;49.916;8.284;2023-06-14T09:30:53;6.63;;;2.10;;
32096;SDS011;18610;49.916;8.284;2023-06-14T09:33:20;4.95;;;1.92;;
32096;SDS011;18610;49.916;8.284;2023-06-14T09:35:50;5.93;;;1.90;;
32096;SDS011;18610;49.916;8.284;2023-06-14T09:38:17;8.80;;;1.92;;
32096;SDS011;18610;49.916;8.284;2023-06-14T09:40:44;23.05;;;2.42;;
32096;SDS011;18610;49.916;8.284;2023-06-14T09:43:12;6.55;;;2.20;;
32096;SDS011;18610;49.916;8.284;2023-06-14T09:45:39;6.00;;;2.20;;
32096;SDS011;18610;49.916;8.284;2023-06-14T09:48:06;5.30;;;2.40;;
32096;SDS011;18610;49.916;8.284;2023-06-14T09:50:33;8.20;;;1.60;;
32096;SDS011;18610;49.916;8.284;2023-06-14T09:53:01;5.20;;;1.67;;
32096;SDS011;18610;49.916;8.284;2023-06-14T09:55:31;4.05;;;1.48;;
32096;SDS011;18610;49.916;8.284;2023-06-14T09:58:02;2.25;;;1.42;;
32096;SDS011;18610;49.916;8.284;2023-06-14T10:00:33;6.10;;;1.65;;
32096;SDS011;18610;49.916;8.284;2023-06-14T10:03:03;3.83;;;1.50;;
32096;SDS011;18610;49.916;8.284;2023-06-14T10:05:39;4.45;;;1.67;;
32096;SDS011;18610;49.916;8.284;2023-06-14T10:08:10;4.85;;;1.75;;
32096;SDS011;18610;49.916;8.284;2023-06-14T10:10:40;2.28;;;1.45;;
32096;SDS011;18610;49.916;8.284;2023-06-14T10:13:09;3.35;;;1.38;;
32096;SDS011;18610;49.916;8.284;2023-06-14T10:15:41;4.93;;;1.70;;
32096;SDS011;18610;49.916;8.284;2023-06-14T10:18:14;5.03;;;1.45;;
32096;SDS011;18610;49.916;8.284;2023-06-14T10:20:49;7.32;;;2.28;;
32096;SDS011;18610;49.916;8.284;2023-06-14T10:23:22;1.83;;;1.42;;
32096;SDS011;18610;49.916;8.284;2023-06-14T10:25:52;1.30;;;1.20;;
32096;SDS011;18610;49.916;8.284;2023-06-14T10:28:22;5.57;;;1.38;;
32096;SDS011;18610;49.916;8.284;2023-06-14T10:31:07;2.13;;;1.42;;
32096;SDS011;18610;49.916;8.284;2023-06-14T10:33:34;5.03;;;1.92;;
32096;SDS011;18610;49.916;8.284;2023-06-14T10:38:59;11.65;;;1.50;;
32096;SDS011;18610;49.916;8.284;2023-06-14T10:41:27;4.35;;;1.90;;
32096;SDS011;18610;49.916;8.284;2023-06-14T10:44:10;8.07;;;1.70;;
32096;SDS011;18610;49.916;8.284;2023-06-14T10:47:05;8.43;;;1.90;;
32096;SDS011;18610;49.916;8.284;2023-06-14T10:49:37;9.20;;;1.77;;
32096;SDS011;18610;49.916;8.284;2023-06-14T10:52:07;3.78;;;1.73;;
32096;SDS011;18610;49.916;8.284;2023-06-14T10:54:42;1.83;;;1.52;;
32096;SDS011;18610;49.916;8.284;2023-06-14T10:57:22;3.33;;;1.65;;
32096;SDS011;18610;49.916;8.284;2023-06-14T10:59:49;3.75;;;1.40;;
32096;SDS011;18610;49.916;8.284;2023-06-14T11:02:27;5.00;;;1.50;;
32096;SDS011;18610;49.916;8.284;2023-06-14T11:05:21;4.07;;;1.45;;
32096;SDS011;18610;49.916;8.284;2023-06-14T11:07:55;3.08;;;1.20;;
32096;SDS011;18610;49.916;8.284;2023-06-14T11:10:36;5.88;;;1.88;;
32096;SDS011;18610;49.916;8.284;2023-06-14T11:13:03;10.98;;;1.60;;
32096;SDS011;18610;49.916;8.284;2023-06-14T11:15:30;2.33;;;1.67;;
32096;SDS011;18610;49.916;8.284;2023-06-14T11:18:01;3.00;;;1.35;;
32096;SDS011;18610;49.916;8.284;2023-06-14T11:20:29;7.47;;;1.80;;
32096;SDS011;18610;49.916;8.284;2023-06-14T11:22:57;1.80;;;1.60;;
32096;SDS011;18610;49.916;8.284;2023-06-14T11:25:25;5.13;;;1.63;;
32096;SDS011;18610;49.916;8.284;2023-06-14T11:27:53;1.60;;;1.50;;
32096;SDS011;18610;49.916;8.284;2023-06-14T11:30:19;5.35;;;1.67;;
32096;SDS011;18610;49.916;8.284;2023-06-14T11:32:46;3.63;;;1.70;;
32096;SDS011;18610;49.916;8.284;2023-06-14T11:35:15;5.13;;;2.08;;
32096;SDS011;18610;49.916;8.284;2023-06-14T11:37:42;2.50;;;1.58;;
32096;SDS011;18610;49.916;8.284;2023-06-14T11:40:11;2.58;;;1.48;;
32096;SDS011;18610;49.916;8.284;2023-06-14T11:42:38;2.78;;;1.60;;
32096;SDS011;18610;49.916;8.284;2023-06-14T11:45:07;9.98;;;1.80;;
32096;SDS011;18610;49.916;8.284;2023-06-14T11:47:35;5.65;;;2.20;;
32096;SDS011;18610;49.916;8.284;2023-06-14T11:50:04;2.95;;;1.80;;
32096;SDS011;18610;49.916;8.284;2023-06-14T11:52:33;3.67;;;1.70;;
32096;SDS011;18610;49.916;8.284;2023-06-14T11:55:02;4.40;;;2.30;;
32096;SDS011;18610;49.916;8.284;2023-06-14T11:57:30;3.97;;;2.10;;
32096;SDS011;18610;49.916;8.284;2023-06-14T12:00:00;7.28;;;1.92;;
32096;SDS011;18610;49.916;8.284;2023-06-14T12:02:32;5.70;;;1.92;;
32096;SDS011;18610;49.916;8.284;2023-06-14T12:05:03;2.75;;;1.80;;
32096;SDS011;18610;49.916;8.284;2023-06-14T12:07:34;4.05;;;2.00;;
32096;SDS011;18610;49.916;8.284;2023-06-14T12:10:05;3.47;;;1.95;;
32096;SDS011;18610;49.916;8.284;2023-06-14T12:12:35;2.58;;;2.08;;
32096;SDS011;18610;49.916;8.284;2023-06-14T12:15:03;2.60;;;1.73;;
32096;SDS011;18610;49.916;8.284;2023-06-14T12:17:31;3.42;;;1.60;;
32096;SDS011;18610;49.916;8.284;2023-06-14T12:20:04;5.00;;;2.13;;
32096;SDS011;18610;49.916;8.284;2023-06-14T12:22:35;8.52;;;2.35;;
32096;SDS011;18610;49.916;8.284;2023-06-14T12:25:01;13.35;;;2.30;;
32096;SDS011;18610;49.916;8.284;2023-06-14T12:27:28;5.28;;;2.28;;
32096;SDS011;18610;49.916;8.284;2023-06-14T12:29:59;3.08;;;2.22;;
32096;SDS011;18610;49.916;8.284;2023-06-14T12:32:26;10.75;;;2.17;;
32096;SDS011;18610;49.916;8.284;2023-06-14T12:34:53;3.22;;;1.90;;
32096;SDS011;18610;49.916;8.284;2023-06-14T12:37:19;2.92;;;1.90;;
32096;SDS011;18610;49.916;8.284;2023-06-14T12:39:47;6.00;;;2.25;;
32096;SDS011;18610;49.916;8.284;2023-06-14T12:42:15;8.13;;;2.03;;
32096;SDS011;18610;49.916;8.284;2023-06-14T12:44:42;4.43;;;2.13;;
32096;SDS011;18610;49.916;8.284;2023-06-14T12:47:09;11.20;;;2.42;;
32096;SDS011;18610;49.916;8.284;2023-06-14T12:49:36;5.18;;;2.38;;
32096;SDS011;18610;49.916;8.284;2023-06-14T12:52:03;4.07;;;1.80;;
32096;SDS011;18610;49.916;8.284;2023-06-14T12:54:30;4.35;;;2.10;;
32096;SDS011;18610;49.916;8.284;2023-06-14T12:56:58;3.25;;;2.03;;
32096;SDS011;18610;49.916;8.284;2023-06-14T12:59:25;11.02;;;2.08;;
32096;SDS011;18610;49.916;8.284;2023-06-14T13:01:57;4.78;;;2.08;;
32096;SDS011;18610;49.916;8.284;2023-06-14T13:04:25;2.58;;;2.03;;
32096;SDS011;18610;49.916;8.284;2023-06-14T13:06:52;5.10;;;2.30;;
32096;SDS011;18610;49.916;8.284;2023-06-14T13:09:19;2.85;;;1.73;;
32096;SDS011;18610;49.916;8.284;2023-06-14T13:11:46;6.80;;;2.10;;
32096;SDS011;18610;49.916;8.284;2023-06-14T13:14:14;21.73;;;2.58;;
32096;SDS011;18610;49.916;8.284;2023-06-14T13:16:41;8.05;;;2.22;;
32096;SDS011;18610;49.916;8.284;2023-06-14T13:19:08;2.42;;;1.95;;
32096;SDS011;18610;49.916;8.284;2023-06-14T13:21:34;3.85;;;2.00;;
32096;SDS011;18610;49.916;8.284;2023-06-14T13:24:01;3.70;;;2.38;;
32096;SDS011;18610;49.916;8.284;2023-06-14T13:26:28;2.10;;;1.80;;
32096;SDS011;18610;49.916;8.284;2023-06-14T13:28:55;8.68;;;2.33;;
32096;SDS011;18610;49.916;8.284;2023-06-14T13:31:23;3.05;;;2.15;;
32096;SDS011;18610;49.916;8.284;2023-06-14T13:33:49;5.10;;;1.90;;
32096;SDS011;18610;49.916;8.284;2023-06-14T13:36:16;3.42;;;2.33;;
32096;SDS011;18610;49.916;8.284;2023-06-14T13:38:43;3.60;;;1.90;;
32096;SDS011;18610;49.916;8.284;2023-06-14T13:41:09;4.78;;;1.80;;
32096;SDS011;18610;49.916;8.284;2023-06-14T13:43:36;16.08;;;2.10;;
32096;SDS011;18610;49.916;8.284;2023-06-14T13:46:03;5.75;;;2.05;;
32096;SDS011;18610;49.916;8.284;2023-06-14T13:48:31;7.22;;;2.25;;
32096;SDS011;18610;49.916;8.284;2023-06-14T13:50:59;6.70;;;2.47;;
32096;SDS011;18610;49.916;8.284;2023-06-14T13:53:26;4.43;;;2.00;;
32096;SDS011;18610;49.916;8.284;2023-06-14T13:55:52;7.50;;;2.22;;
32096;SDS011;18610;49.916;8.284;2023-06-14T13:58:19;6.03;;;2.65;;
32096;SDS011;18610;49.916;8.284;2023-06-14T14:00:46;11.18;;;2.70;;
32096;SDS011;18610;49.916;8.284;2023-06-14T14:03:13;6.50;;;2.50;;
32096;SDS011;18610;49.916;8.284;2023-06-14T14:05:41;4.10;;;2.22;;
32096;SDS011;18610;49.916;8.284;2023-06-14T14:08:07;5.63;;;2.72;;
32096;SDS011;18610;49.916;8.284;2023-06-14T14:10:34;4.70;;;2.60;;
32096;SDS011;18610;49.916;8.284;2023-06-14T14:13:01;4.53;;;2.20;;
32096;SDS011;18610;49.916;8.284;2023-06-14T14:15:27;3.88;;;2.42;;
32096;SDS011;18610;49.916;8.284;2023-06-14T14:17:55;6.18;;;2.25;;
32096;SDS011;18610;49.916;8.284;2023-06-14T14:20:22;3.40;;;2.15;;
32096;SDS011;18610;49.916;8.284;2023-06-14T14:22:50;3.65;;;2.47;;
32096;SDS011;18610;49.916;8.284;2023-06-14T14:25:17;3.78;;;2.33;;
32096;SDS011;18610;49.916;8.284;2023-06-14T14:27:44;6.72;;;2.30;;
32096;SDS011;18610;49.916;8.284;2023-06-14T14:30:11;3.20;;;2.30;;
32096;SDS011;18610;49.916;8.284;2023-06-14T14:32:38;5.07;;;2.70;;
32096;SDS011;18610;49.916;8.284;2023-06-14T14:35:06;3.72;;;2.28;;
32096;SDS011;18610;49.916;8.284;2023-06-14T14:37:33;8.23;;;2.40;;
32096;SDS011;18610;49.916;8.284;2023-06-14T14:40:01;5.55;;;2.97;;
32096;SDS011;18610;49.916;8.284;2023-06-14T14:42:28;3.90;;;2.60;;
32096;SDS011;18610;49.916;8.284;2023-06-14T14:44:55;4.07;;;2.10;;
32096;SDS011;18610;49.916;8.284;2023-06-14T14:47:22;7.45;;;2.42;;
32096;SDS011;18610;49.916;8.284;2023-06-14T14:49:51;4.80;;;2.40;;
32096;SDS011;18610;49.916;8.284;2023-06-14T14:52:17;5.22;;;2.45;;